sensor_id;sensor_type;location;lat;lon;timestamp;temperature;humidity
66088;DHT22;52872;52.994;6.940;2023-05-10T00:00:25;16.40;99.90
66088;DHT22;52872;52.994;6.940;2023-05-10T00:02:52;16.40;99.90
66088;DHT22;52872;52.994;6.940;2023-05-10T00:05:19;16.50;99.90
66088;DHT22;52872;52.994;6.940;2023-05-10T00:07:46;16.40;99.90
66088;DHT22;52872;52.994;6.940;2023-05-10T00:10:13;16.50;99.90
66088;DHT22;52872;52.994;6.940;2023-05-10T00:12:41;16.40;99.90
66088;DHT22;52872;52.994;6.940;2023-05-10T00:15:09;16.50;99.90
66088;DHT22;52872;52.994;6.940;2023-05-10T00:17:37;16.40;99.90
66088;DHT22;52872;52.994;6.940;2023-05-10T00:20:04;16.40;99.90
66088;DHT22;52872;52.994;6.940;2023-05-10T00:22:32;16.40;99.90
66088;DHT22;52872;52.994;6.940;2023-05-10T00:24:59;16.30;99.90
66088;DHT22;52872;52.994;6.940;2023-05-10T00:27:29;16.20;99.90
66088;DHT22;52872;52.994;6.940;2023-05-10T00:29:56;16.20;99.90
66088;DHT22;52872;52.994;6.940;2023-05-10T00:32:23;16.20;99.90
66088;DHT22;52872;52.994;6.940;2023-05-10T00:34:50;16.10;99.90
66088;DHT22;52872;52.994;6.940;2023-05-10T00:37:17;16.10;99.90
66088;DHT22;52872;52.994;6.940;2023-05-10T00:39:44;16.00;99.90
66088;DHT22;52872;52.994;6.940;2023-05-10T00:42:11;16.00;99.90
66088;DHT22;52872;52.994;6.940;2023-05-10T00:44:38;15.90;99.90
66088;DHT22;52872;52.994;6.940;2023-05-10T00:47:05;15.90;99.90
66088;DHT22;52872;52.994;6.940;2023-05-10T00:49:32;15.90;99.90
66088;DHT22;52872;52.994;6.940;2023-05-10T00:52:03;15.90;99.90
66088;DHT22;52872;52.994;6.940;2023-05-10T00:54:30;15.90;99.90
66088;DHT22;52872;52.994;6.940;2023-05-10T00:56:57;15.90;99.90
66088;DHT22;52872;52.994;6.940;2023-05-10T00:59:24;15.90;99.90
66088;DHT22;52872;52.994;6.940;2023-05-10T01:01:52;15.90;99.90
66088;DHT22;52872;52.994;6.940;2023-05-10T01:04:19;15.90;99.90
66088;DHT22;52872;52.994;6.940;2023-05-10T01:06:52;15.80;99.90
66088;DHT22;52872;52.994;6.940;2023-05-10T01:09:21;15.80;99.90
66088;DHT22;52872;52.994;6.940;2023-05-10T01:11:49;15.80;99.90
66088;DHT22;52872;52.994;6.940;2023-05-10T01:14:18;15.70;99.90
66088;DHT22;52872;52.994;6.940;2023-05-10T01:16:48;15.70;99.90
66088;DHT22;52872;52.994;6.940;2023-05-10T01:19:26;15.70;99.90
66088;DHT22;52872;52.994;6.940;2023-05-10T01:33:19;15.60;99.90
66088;DHT22;52872;52.994;6.940;2023-05-10T01:36:05;15.60;99.90
66088;DHT22;52872;52.994;6.940;2023-05-10T01:43:51;15.60;99.90
66088;DHT22;52872;52.994;6.940;2023-05-10T01:46:39;15.50;99.90
66088;DHT22;52872;52.994;6.940;2023-05-10T01:49:16;15.60;99.90
66088;DHT22;52872;52.994;6.940;2023-05-10T01:51:49;15.60;99.90
66088;DHT22;52872;52.994;6.940;2023-05-10T01:54:20;15.50;99.90
66088;DHT22;52872;52.994;6.940;2023-05-10T01:56:52;15.50;99.90
66088;DHT22;52872;52.994;6.940;2023-05-10T01:59:22;15.50;99.90
66088;DHT22;52872;52.994;6.940;2023-05-10T02:01:55;15.50;99.90
66088;DHT22;52872;52.994;6.940;2023-05-10T02:04:25;15.50;99.90
66088;DHT22;52872;52.994;6.940;2023-05-10T02:06:53;15.50;99.90
66088;DHT22;52872;52.994;6.940;2023-05-10T02:09:21;15.50;99.90
66088;DHT22;52872;52.994;6.940;2023-05-10T02:11:50;15.50;99.90
66088;DHT22;52872;52.994;6.940;2023-05-10T02:14:18;15.60;99.90
66088;DHT22;52872;52.994;6.940;2023-05-10T02:16:47;15.50;99.90
66088;DHT22;52872;52.994;6.940;2023-05-10T02:19:15;15.50;99.90
66088;DHT22;52872;52.994;6.940;2023-05-10T02:21:43;15.50;99.90
66088;DHT22;52872;52.994;6.940;2023-05-10T02:24:11;15.50;99.90
66088;DHT22;52872;52.994;6.940;2023-05-10T02:26:39;15.50;99.90
66088;DHT22;52872;52.994;6.940;2023-05-10T02:29:08;15.50;99.90
66088;DHT22;52872;52.994;6.940;2023-05-10T02:31:36;15.50;99.90
66088;DHT22;52872;52.994;6.940;2023-05-10T02:34:06;15.50;99.90
66088;DHT22;52872;52.994;6.940;2023-05-10T02:36:34;15.50;99.90
66088;DHT22;52872;52.994;6.940;2023-05-10T02:39:04;15.50;99.90
66088;DHT22;52872;52.994;6.940;2023-05-10T02:41:36;15.50;99.90
66088;DHT22;52872;52.994;6.940;2023-05-10T02:44:06;15.50;99.90
66088;DHT22;52872;52.994;6.940;2023-05-10T02:46:35;15.50;99.90
66088;DHT22;52872;52.994;6.940;2023-05-10T02:49:03;15.50;99.90
66088;DHT22;52872;52.994;6.940;2023-05-10T02:51:32;15.40;99.90
66088;DHT22;52872;52.994;6.940;2023-05-10T02:54:08;15.50;99.90
66088;DHT22;52872;52.994;6.940;2023-05-10T02:56:43;15.50;99.90
66088;DHT22;52872;52.994;6.940;2023-05-10T02:59:14;15.50;99.90
66088;DHT22;52872;52.994;6.940;2023-05-10T03:01:41;15.40;99.90
66088;DHT22;52872;52.994;6.940;2023-05-10T03:04:08;15.40;99.90
66088;DHT22;52872;52.994;6.940;2023-05-10T03:06:35;15.40;99.90
66088;DHT22;52872;52.994;6.940;2023-05-10T03:09:03;15.40;99.90
66088;DHT22;52872;52.994;6.940;2023-05-10T03:17:04;15.50;99.90
66088;DHT22;52872;52.994;6.940;2023-05-10T03:19:46;15.40;99.90
66088;DHT22;52872;52.994;6.940;2023-05-10T03:22:24;15.50;99.90
66088;DHT22;52872;52.994;6.940;2023-05-10T03:24:55;15.40;99.90
66088;DHT22;52872;52.994;6.940;2023-05-10T03:27:26;15.40;99.90
66088;DHT22;52872;52.994;6.940;2023-05-10T03:29:55;15.40;99.90
66088;DHT22;52872;52.994;6.940;2023-05-10T03:32:23;15.40;99.90
66088;DHT22;52872;52.994;6.940;2023-05-10T03:34:50;15.40;99.90
66088;DHT22;52872;52.994;6.940;2023-05-10T03:37:17;15.40;99.90
66088;DHT22;52872;52.994;6.940;2023-05-10T03:39:44;15.40;99.90
66088;DHT22;52872;52.994;6.940;2023-05-10T03:42:11;15.40;99.90
66088;DHT22;52872;52.994;6.940;2023-05-10T03:44:39;15.40;99.90
66088;DHT22;52872;52.994;6.940;2023-05-10T03:47:07;15.40;99.90
66088;DHT22;52872;52.994;6.940;2023-05-10T03:49:35;15.40;99.90
66088;DHT22;52872;52.994;6.940;2023-05-10T03:52:02;15.40;99.90
66088;DHT22;52872;52.994;6.940;2023-05-10T03:54:30;15.50;99.90
66088;DHT22;52872;52.994;6.940;2023-05-10T03:56:58;15.50;99.90
66088;DHT22;52872;52.994;6.940;2023-05-10T03:59:25;15.40;99.90
66088;DHT22;52872;52.994;6.940;2023-05-10T04:01:52;15.40;99.90
66088;DHT22;52872;52.994;6.940;2023-05-10T04:04:19;15.40;99.90
66088;DHT22;52872;52.994;6.940;2023-05-10T04:06:49;15.40;99.90
66088;DHT22;52872;52.994;6.940;2023-05-10T04:09:16;15.40;99.90
66088;DHT22;52872;52.994;6.940;2023-05-10T04:11:43;15.40;99.90
66088;DHT22;52872;52.994;6.940;2023-05-10T04:14:10;15.40;99.90
66088;DHT22;52872;52.994;6.940;2023-05-10T04:16:37;15.40;99.90
66088;DHT22;52872;52.994;6.940;2023-05-10T04:19:04;15.40;99.90
66088;DHT22;52872;52.994;6.940;2023-05-10T04:21:31;15.40;99.90
66088;DHT22;52872;52.994;6.940;2023-05-10T04:23:58;15.40;99.90
66088;DHT22;52872;52.994;6.940;2023-05-10T04:26:25;15.40;99.90
66088;DHT22;52872;52.994;6.940;2023-05-10T04:28:52;15.40;99.90
66088;DHT22;52872;52.994;6.940;2023-05-10T04:31:19;15.40;99.90
66088;DHT22;52872;52.994;6.940;2023-05-10T04:33:46;15.40;99.90
66088;DHT22;52872;52.994;6.940;2023-05-10T04:36:13;15.40;99.90
66088;DHT22;52872;52.994;6.940;2023-05-10T04:38:40;15.40;99.90
66088;DHT22;52872;52.994;6.940;2023-05-10T04:41:08;15.40;99.90
66088;DHT22;52872;52.994;6.940;2023-05-10T04:43:35;15.40;99.90
66088;DHT22;52872;52.994;6.940;2023-05-10T04:46:03;15.40;99.90
66088;DHT22;52872;52.994;6.940;2023-05-10T04:48:30;15.50;99.90
66088;DHT22;52872;52.994;6.940;2023-05-10T04:50:57;15.40;99.90
66088;DHT22;52872;52.994;6.940;2023-05-10T04:53:24;15.40;99.90
66088;DHT22;52872;52.994;6.940;2023-05-10T04:55:51;15.40;99.90
66088;DHT22;52872;52.994;6.940;2023-05-10T04:58:18;15.40;99.90
66088;DHT22;52872;52.994;6.940;2023-05-10T05:00:45;15.40;99.90
66088;DHT22;52872;52.994;6.940;2023-05-10T05:03:12;15.40;99.90
66088;DHT22;52872;52.994;6.940;2023-05-10T05:05:39;15.40;99.90
66088;DHT22;52872;52.994;6.940;2023-05-10T05:08:06;15.40;99.90
66088;DHT22;52872;52.994;6.940;2023-05-10T05:10:33;15.40;99.90
66088;DHT22;52872;52.994;6.940;2023-05-10T05:13:00;15.40;99.90
66088;DHT22;52872;52.994;6.940;2023-05-10T05:15:27;15.40;99.90
66088;DHT22;52872;52.994;6.940;2023-05-10T05:17:54;15.40;99.90
66088;DHT22;52872;52.994;6.940;2023-05-10T05:20:21;15.40;99.90
66088;DHT22;52872;52.994;6.940;2023-05-10T05:22:48;15.40;99.90
66088;DHT22;52872;52.994;6.940;2023-05-10T05:25:15;15.50;99.90
66088;DHT22;52872;52.994;6.940;2023-05-10T05:27:42;15.50;99.90
66088;DHT22;52872;52.994;6.940;2023-05-10T05:30:09;15.50;99.90
66088;DHT22;52872;52.994;6.940;2023-05-10T05:32:36;15.50;99.90
66088;DHT22;52872;52.994;6.940;2023-05-10T05:35:04;15.50;99.90
66088;DHT22;52872;52.994;6.940;2023-05-10T05:37:31;15.50;99.90
66088;DHT22;52872;52.994;6.940;2023-05-10T05:39:58;15.50;99.90
66088;DHT22;52872;52.994;6.940;2023-05-10T05:42:27;15.50;99.90
66088;DHT22;52872;52.994;6.940;2023-05-10T05:44:54;15.50;99.90
66088;DHT22;52872;52.994;6.940;2023-05-10T05:47:21;15.50;99.90
66088;DHT22;52872;52.994;6.940;2023-05-10T05:49:48;15.50;99.90
66088;DHT22;52872;52.994;6.940;2023-05-10T05:52:15;15.50;99.90
66088;DHT22;52872;52.994;6.940;2023-05-10T05:54:42;15.40;99.90
66088;DHT22;52872;52.994;6.940;2023-05-10T05:57:09;15.40;99.90
66088;DHT22;52872;52.994;6.940;2023-05-10T05:59:36;15.40;99.90
66088;DHT22;52872;52.994;6.940;2023-05-10T06:02:09;15.40;99.90
66088;DHT22;52872;52.994;6.940;2023-05-10T06:04:36;15.40;99.90
66088;DHT22;52872;52.994;6.940;2023-05-10T06:07:03;15.30;99.90
66088;DHT22;52872;52.994;6.940;2023-05-10T06:09:30;15.40;99.90
66088;DHT22;52872;52.994;6.940;2023-05-10T06:11:57;15.40;99.90
66088;DHT22;52872;52.994;6.940;2023-05-10T06:14:24;15.40;99.90
66088;DHT22;52872;52.994;6.940;2023-05-10T06:16:51;15.40;99.90
66088;DHT22;52872;52.994;6.940;2023-05-10T06:19:18;15.40;99.90
66088;DHT22;52872;52.994;6.940;2023-05-10T06:21:45;15.40;99.90
66088;DHT22;52872;52.994;6.940;2023-05-10T06:24:12;15.40;99.90
66088;DHT22;52872;52.994;6.940;2023-05-10T06:26:39;15.40;99.90
66088;DHT22;52872;52.994;6.940;2023-05-10T06:29:06;15.40;99.90
66088;DHT22;52872;52.994;6.940;2023-05-10T06:31:33;15.50;99.90
66088;DHT22;52872;52.994;6.940;2023-05-10T06:34:00;15.50;99.90
66088;DHT22;52872;52.994;6.940;2023-05-10T06:36:27;15.50;99.90
66088;DHT22;52872;52.994;6.940;2023-05-10T06:38:54;15.50;99.90
66088;DHT22;52872;52.994;6.940;2023-05-10T06:41:21;15.40;99.90
66088;DHT22;52872;52.994;6.940;2023-05-10T06:43:50;15.40;99.90
66088;DHT22;52872;52.994;6.940;2023-05-10T06:46:17;15.40;99.90
66088;DHT22;52872;52.994;6.940;2023-05-10T06:48:44;15.40;99.90
66088;DHT22;52872;52.994;6.940;2023-05-10T06:51:11;15.40;99.90
66088;DHT22;52872;52.994;6.940;2023-05-10T06:53:38;15.40;99.90
66088;DHT22;52872;52.994;6.940;2023-05-10T06:56:05;15.40;99.90
66088;DHT22;52872;52.994;6.940;2023-05-10T06:58:32;15.50;99.90
66088;DHT22;52872;52.994;6.940;2023-05-10T07:01:03;15.50;99.90
66088;DHT22;52872;52.994;6.940;2023-05-10T07:03:31;15.60;99.90
66088;DHT22;52872;52.994;6.940;2023-05-10T07:06:03;15.60;99.90
66088;DHT22;52872;52.994;6.940;2023-05-10T07:08:33;15.70;99.90
66088;DHT22;52872;52.994;6.940;2023-05-10T07:11:04;15.70;99.90
66088;DHT22;52872;52.994;6.940;2023-05-10T07:13:32;15.60;99.90
66088;DHT22;52872;52.994;6.940;2023-05-10T07:15:59;15.60;99.90
66088;DHT22;52872;52.994;6.940;2023-05-10T07:18:27;15.60;99.90
66088;DHT22;52872;52.994;6.940;2023-05-10T07:20:54;15.70;99.90
66088;DHT22;52872;52.994;6.940;2023-05-10T07:23:21;15.70;99.90
66088;DHT22;52872;52.994;6.940;2023-05-10T07:25:50;15.70;99.90
66088;DHT22;52872;52.994;6.940;2023-05-10T07:28:19;15.80;99.90
66088;DHT22;52872;52.994;6.940;2023-05-10T07:30:46;15.70;99.90
66088;DHT22;52872;52.994;6.940;2023-05-10T07:33:14;15.70;99.90
66088;DHT22;52872;52.994;6.940;2023-05-10T07:35:42;15.80;99.90
66088;DHT22;52872;52.994;6.940;2023-05-10T07:38:09;15.80;99.90
66088;DHT22;52872;52.994;6.940;2023-05-10T07:40:38;15.80;99.90
66088;DHT22;52872;52.994;6.940;2023-05-10T07:43:05;15.80;99.90
66088;DHT22;52872;52.994;6.940;2023-05-10T07:45:33;15.90;99.90
66088;DHT22;52872;52.994;6.940;2023-05-10T07:48:00;16.00;99.90
66088;DHT22;52872;52.994;6.940;2023-05-10T07:50:27;16.10;99.90
66088;DHT22;52872;52.994;6.940;2023-05-10T07:52:54;16.10;99.90
66088;DHT22;52872;52.994;6.940;2023-05-10T07:55:21;16.30;99.90
66088;DHT22;52872;52.994;6.940;2023-05-10T07:57:48;16.20;99.90
66088;DHT22;52872;52.994;6.940;2023-05-10T08:00:19;16.30;99.90
66088;DHT22;52872;52.994;6.940;2023-05-10T08:02:47;16.40;99.90
66088;DHT22;52872;52.994;6.940;2023-05-10T08:05:14;16.40;99.90
66088;DHT22;52872;52.994;6.940;2023-05-10T08:07:42;16.60;99.90
66088;DHT22;52872;52.994;6.940;2023-05-10T08:10:10;16.70;99.90
66088;DHT22;52872;52.994;6.940;2023-05-10T08:12:38;16.80;99.90
66088;DHT22;52872;52.994;6.940;2023-05-10T08:15:06;16.90;99.90
66088;DHT22;52872;52.994;6.940;2023-05-10T08:17:34;17.00;99.90
66088;DHT22;52872;52.994;6.940;2023-05-10T08:20:01;17.10;99.90
66088;DHT22;52872;52.994;6.940;2023-05-10T08:22:28;17.20;99.90
66088;DHT22;52872;52.994;6.940;2023-05-10T08:24:55;17.30;99.90
66088;DHT22;52872;52.994;6.940;2023-05-10T08:27:22;17.40;99.90
66088;DHT22;52872;52.994;6.940;2023-05-10T08:29:49;17.40;99.90
66088;DHT22;52872;52.994;6.940;2023-05-10T08:32:17;17.50;99.90
66088;DHT22;52872;52.994;6.940;2023-05-10T08:34:44;17.60;99.90
66088;DHT22;52872;52.994;6.940;2023-05-10T08:37:11;17.50;99.90
66088;DHT22;52872;52.994;6.940;2023-05-10T08:39:40;17.50;99.90
66088;DHT22;52872;52.994;6.940;2023-05-10T08:42:07;17.50;99.90
66088;DHT22;52872;52.994;6.940;2023-05-10T08:44:36;17.40;99.90
66088;DHT22;52872;52.994;6.940;2023-05-10T08:47:06;17.30;99.90
66088;DHT22;52872;52.994;6.940;2023-05-10T08:49:34;17.20;99.90
66088;DHT22;52872;52.994;6.940;2023-05-10T08:52:03;17.10;99.90
66088;DHT22;52872;52.994;6.940;2023-05-10T08:54:32;17.10;99.90
66088;DHT22;52872;52.994;6.940;2023-05-10T08:57:00;17.10;99.90
66088;DHT22;52872;52.994;6.940;2023-05-10T08:59:27;17.10;99.90
66088;DHT22;52872;52.994;6.940;2023-05-10T09:01:57;17.00;99.90
66088;DHT22;52872;52.994;6.940;2023-05-10T09:04:25;17.00;99.90
66088;DHT22;52872;52.994;6.940;2023-05-10T09:06:53;17.00;99.90
66088;DHT22;52872;52.994;6.940;2023-05-10T09:09:20;17.10;99.90
66088;DHT22;52872;52.994;6.940;2023-05-10T09:11:48;17.20;99.90
66088;DHT22;52872;52.994;6.940;2023-05-10T09:14:15;17.30;99.90
66088;DHT22;52872;52.994;6.940;2023-05-10T09:16:43;17.40;99.90
66088;DHT22;52872;52.994;6.940;2023-05-10T09:19:11;17.30;99.90
66088;DHT22;52872;52.994;6.940;2023-05-10T09:21:38;17.30;99.90
66088;DHT22;52872;52.994;6.940;2023-05-10T09:24:06;17.30;99.90
66088;DHT22;52872;52.994;6.940;2023-05-10T09:26:34;17.30;99.90
66088;DHT22;52872;52.994;6.940;2023-05-10T09:29:03;17.20;99.90
66088;DHT22;52872;52.994;6.940;2023-05-10T09:31:50;17.20;99.90
66088;DHT22;52872;52.994;6.940;2023-05-10T09:34:32;17.30;99.90
66088;DHT22;52872;52.994;6.940;2023-05-10T09:37:02;17.40;99.90
66088;DHT22;52872;52.994;6.940;2023-05-10T09:39:32;17.50;99.90
66088;DHT22;52872;52.994;6.940;2023-05-10T09:42:01;17.90;99.90
66088;DHT22;52872;52.994;6.940;2023-05-10T09:44:31;18.10;99.90
66088;DHT22;52872;52.994;6.940;2023-05-10T09:47:02;18.20;99.90
66088;DHT22;52872;52.994;6.940;2023-05-10T09:49:31;18.30;99.90
66088;DHT22;52872;52.994;6.940;2023-05-10T09:52:06;18.50;99.90
66088;DHT22;52872;52.994;6.940;2023-05-10T09:54:33;18.70;99.90
66088;DHT22;52872;52.994;6.940;2023-05-10T09:57:01;18.90;99.90
66088;DHT22;52872;52.994;6.940;2023-05-10T09:59:28;19.10;99.90
66088;DHT22;52872;52.994;6.940;2023-05-10T10:01:57;19.20;99.90
66088;DHT22;52872;52.994;6.940;2023-05-10T10:04:25;19.40;99.90
66088;DHT22;52872;52.994;6.940;2023-05-10T10:07:03;19.50;99.90
66088;DHT22;52872;52.994;6.940;2023-05-10T10:09:31;19.50;99.90
66088;DHT22;52872;52.994;6.940;2023-05-10T10:11:59;19.30;99.90
66088;DHT22;52872;52.994;6.940;2023-05-10T10:14:27;19.30;99.90
66088;DHT22;52872;52.994;6.940;2023-05-10T10:16:55;19.40;99.90
66088;DHT22;52872;52.994;6.940;2023-05-10T10:19:36;19.60;99.90
66088;DHT22;52872;52.994;6.940;2023-05-10T10:22:04;20.00;99.90
66088;DHT22;52872;52.994;6.940;2023-05-10T10:24:31;20.10;99.90
66088;DHT22;52872;52.994;6.940;2023-05-10T10:27:23;20.20;99.90
66088;DHT22;52872;52.994;6.940;2023-05-10T10:29:53;20.20;99.90
66088;DHT22;52872;52.994;6.940;2023-05-10T10:32:33;20.10;99.90
66088;DHT22;52872;52.994;6.940;2023-05-10T10:35:02;20.10;99.90
66088;DHT22;52872;52.994;6.940;2023-05-10T10:37:44;19.90;99.90
66088;DHT22;52872;52.994;6.940;2023-05-10T10:40:32;19.90;99.90
66088;DHT22;52872;52.994;6.940;2023-05-10T10:43:24;19.70;99.90
66088;DHT22;52872;52.994;6.940;2023-05-10T10:46:14;19.80;99.90
66088;DHT22;52872;52.994;6.940;2023-05-10T10:48:47;19.80;99.90
66088;DHT22;52872;52.994;6.940;2023-05-10T10:51:15;19.90;99.90
66088;DHT22;52872;52.994;6.940;2023-05-10T10:53:43;20.00;99.90
66088;DHT22;52872;52.994;6.940;2023-05-10T10:56:12;20.10;99.90
66088;DHT22;52872;52.994;6.940;2023-05-10T10:58:40;20.10;99.90
66088;DHT22;52872;52.994;6.940;2023-05-10T11:01:14;20.10;99.90
66088;DHT22;52872;52.994;6.940;2023-05-10T11:06:29;20.00;99.90
66088;DHT22;52872;52.994;6.940;2023-05-10T11:09:09;19.90;99.90
66088;DHT22;52872;52.994;6.940;2023-05-10T11:11:50;19.80;99.90
66088;DHT22;52872;52.994;6.940;2023-05-10T11:14:21;19.70;99.90
66088;DHT22;52872;52.994;6.940;2023-05-10T11:16:49;19.40;99.90
66088;DHT22;52872;52.994;6.940;2023-05-10T11:19:18;19.20;99.90
66088;DHT22;52872;52.994;6.940;2023-05-10T11:21:46;19.10;99.90
66088;DHT22;52872;52.994;6.940;2023-05-10T11:24:18;19.10;99.90
66088;DHT22;52872;52.994;6.940;2023-05-10T11:26:46;19.10;99.90
66088;DHT22;52872;52.994;6.940;2023-05-10T11:29:16;19.10;99.90
66088;DHT22;52872;52.994;6.940;2023-05-10T11:31:43;19.20;99.90
66088;DHT22;52872;52.994;6.940;2023-05-10T11:34:12;19.20;99.90
66088;DHT22;52872;52.994;6.940;2023-05-10T11:36:54;19.20;99.90
66088;DHT22;52872;52.994;6.940;2023-05-10T11:39:24;19.10;99.90
66088;DHT22;52872;52.994;6.940;2023-05-10T11:41:52;19.10;99.90
66088;DHT22;52872;52.994;6.940;2023-05-10T11:44:19;19.10;99.90
66088;DHT22;52872;52.994;6.940;2023-05-10T11:46:46;19.10;99.90
66088;DHT22;52872;52.994;6.940;2023-05-10T11:49:13;19.20;99.90
66088;DHT22;52872;52.994;6.940;2023-05-10T11:51:40;19.40;99.90
66088;DHT22;52872;52.994;6.940;2023-05-10T11:54:11;19.50;99.90
66088;DHT22;52872;52.994;6.940;2023-05-10T11:56:39;19.60;99.90
66088;DHT22;52872;52.994;6.940;2023-05-10T11:59:06;19.70;99.90
66088;DHT22;52872;52.994;6.940;2023-05-10T12:01:37;19.70;99.90
66088;DHT22;52872;52.994;6.940;2023-05-10T12:04:04;19.70;99.90
66088;DHT22;52872;52.994;6.940;2023-05-10T12:06:37;19.70;99.90
66088;DHT22;52872;52.994;6.940;2023-05-10T12:09:07;19.90;99.90
66088;DHT22;52872;52.994;6.940;2023-05-10T12:11:38;19.80;99.90
66088;DHT22;52872;52.994;6.940;2023-05-10T12:14:08;19.90;99.90
66088;DHT22;52872;52.994;6.940;2023-05-10T12:16:35;19.80;99.90
66088;DHT22;52872;52.994;6.940;2023-05-10T12:19:02;19.90;99.90
66088;DHT22;52872;52.994;6.940;2023-05-10T12:21:30;20.00;99.90
66088;DHT22;52872;52.994;6.940;2023-05-10T12:24:02;19.90;99.90
66088;DHT22;52872;52.994;6.940;2023-05-10T12:26:29;19.90;99.90
66088;DHT22;52872;52.994;6.940;2023-05-10T12:29:16;19.90;99.90
66088;DHT22;52872;52.994;6.940;2023-05-10T12:31:54;19.90;99.90
66088;DHT22;52872;52.994;6.940;2023-05-10T12:34:26;19.90;99.90
66088;DHT22;52872;52.994;6.940;2023-05-10T12:36:54;20.00;99.90
66088;DHT22;52872;52.994;6.940;2023-05-10T12:39:21;20.00;99.90
66088;DHT22;52872;52.994;6.940;2023-05-10T12:41:48;19.90;99.90
66088;DHT22;52872;52.994;6.940;2023-05-10T12:44:15;19.90;99.90
66088;DHT22;52872;52.994;6.940;2023-05-10T12:46:42;19.80;99.90
66088;DHT22;52872;52.994;6.940;2023-05-10T12:49:09;19.70;99.90
66088;DHT22;52872;52.994;6.940;2023-05-10T12:51:36;19.50;99.90
66088;DHT22;52872;52.994;6.940;2023-05-10T12:54:03;19.30;99.90
66088;DHT22;52872;52.994;6.940;2023-05-10T12:56:30;19.20;99.90
66088;DHT22;52872;52.994;6.940;2023-05-10T12:58:57;19.10;99.90
66088;DHT22;52872;52.994;6.940;2023-05-10T13:01:24;19.10;99.90
66088;DHT22;52872;52.994;6.940;2023-05-10T13:03:51;19.00;99.90
66088;DHT22;52872;52.994;6.940;2023-05-10T13:06:18;18.90;99.90
66088;DHT22;52872;52.994;6.940;2023-05-10T13:08:45;18.80;99.90
66088;DHT22;52872;52.994;6.940;2023-05-10T13:11:12;18.80;99.90
66088;DHT22;52872;52.994;6.940;2023-05-10T13:13:43;18.70;99.90
66088;DHT22;52872;52.994;6.940;2023-05-10T13:16:10;18.70;99.90
66088;DHT22;52872;52.994;6.940;2023-05-10T13:18:37;18.70;99.90
66088;DHT22;52872;52.994;6.940;2023-05-10T13:21:04;18.70;99.90
66088;DHT22;52872;52.994;6.940;2023-05-10T13:23:32;18.70;99.90
66088;DHT22;52872;52.994;6.940;2023-05-10T13:25:59;18.80;99.90
66088;DHT22;52872;52.994;6.940;2023-05-10T13:28:26;19.00;99.90
66088;DHT22;52872;52.994;6.940;2023-05-10T13:30:53;19.20;99.90
66088;DHT22;52872;52.994;6.940;2023-05-10T13:33:20;19.50;99.90
66088;DHT22;52872;52.994;6.940;2023-05-10T13:35:47;19.80;99.90
66088;DHT22;52872;52.994;6.940;2023-05-10T13:38:14;20.00;99.90
66088;DHT22;52872;52.994;6.940;2023-05-10T13:40:41;20.30;99.90
66088;DHT22;52872;52.994;6.940;2023-05-10T13:43:08;20.50;99.90
66088;DHT22;52872;52.994;6.940;2023-05-10T13:45:35;20.70;99.90
66088;DHT22;52872;52.994;6.940;2023-05-10T13:48:02;20.80;99.90
66088;DHT22;52872;52.994;6.940;2023-05-10T13:50:30;20.80;99.90
66088;DHT22;52872;52.994;6.940;2023-05-10T13:52:56;20.70;99.90
66088;DHT22;52872;52.994;6.940;2023-05-10T13:55:23;20.60;99.90
66088;DHT22;52872;52.994;6.940;2023-05-10T13:57:50;20.50;99.90
66088;DHT22;52872;52.994;6.940;2023-05-10T14:00:17;20.30;99.90
66088;DHT22;52872;52.994;6.940;2023-05-10T14:02:44;20.10;99.90
66088;DHT22;52872;52.994;6.940;2023-05-10T14:05:11;20.00;99.90
66088;DHT22;52872;52.994;6.940;2023-05-10T14:07:39;20.00;99.90
66088;DHT22;52872;52.994;6.940;2023-05-10T14:10:06;20.10;99.90
66088;DHT22;52872;52.994;6.940;2023-05-10T14:12:33;20.10;99.90
66088;DHT22;52872;52.994;6.940;2023-05-10T14:15:00;20.10;99.90
66088;DHT22;52872;52.994;6.940;2023-05-10T14:17:27;20.20;99.90
66088;DHT22;52872;52.994;6.940;2023-05-10T14:19:55;20.30;99.90
66088;DHT22;52872;52.994;6.940;2023-05-10T14:22:22;20.40;99.90
66088;DHT22;52872;52.994;6.940;2023-05-10T14:24:49;20.30;99.90
66088;DHT22;52872;52.994;6.940;2023-05-10T14:27:16;20.10;99.90
66088;DHT22;52872;52.994;6.940;2023-05-10T14:29:43;19.90;99.90
66088;DHT22;52872;52.994;6.940;2023-05-10T14:32:10;19.80;99.90
66088;DHT22;52872;52.994;6.940;2023-05-10T14:34:37;19.70;99.90
66088;DHT22;52872;52.994;6.940;2023-05-10T14:37:04;19.70;99.90
66088;DHT22;52872;52.994;6.940;2023-05-10T14:39:31;19.80;99.90
66088;DHT22;52872;52.994;6.940;2023-05-10T14:41:59;19.80;99.90
66088;DHT22;52872;52.994;6.940;2023-05-10T14:44:26;19.90;99.90
66088;DHT22;52872;52.994;6.940;2023-05-10T14:46:54;19.90;99.90
66088;DHT22;52872;52.994;6.940;2023-05-10T14:49:22;19.90;99.90
66088;DHT22;52872;52.994;6.940;2023-05-10T14:51:51;19.90;99.90
66088;DHT22;52872;52.994;6.940;2023-05-10T14:54:18;20.00;99.90
66088;DHT22;52872;52.994;6.940;2023-05-10T14:56:45;20.00;99.90
66088;DHT22;52872;52.994;6.940;2023-05-10T14:59:12;20.00;99.90
66088;DHT22;52872;52.994;6.940;2023-05-10T15:01:39;20.10;99.90
66088;DHT22;52872;52.994;6.940;2023-05-10T15:04:08;20.30;99.90
66088;DHT22;52872;52.994;6.940;2023-05-10T15:06:35;20.40;99.90
66088;DHT22;52872;52.994;6.940;2023-05-10T15:09:03;20.50;99.90
66088;DHT22;52872;52.994;6.940;2023-05-10T15:11:30;20.60;99.90
66088;DHT22;52872;52.994;6.940;2023-05-10T15:13:57;20.80;99.90
66088;DHT22;52872;52.994;6.940;2023-05-10T15:16:24;20.80;99.90
66088;DHT22;52872;52.994;6.940;2023-05-10T15:18:51;20.80;99.90
66088;DHT22;52872;52.994;6.940;2023-05-10T15:21:18;20.80;99.90
66088;DHT22;52872;52.994;6.940;2023-05-10T15:23:45;20.80;99.90
66088;DHT22;52872;52.994;6.940;2023-05-10T15:26:12;20.70;99.90
66088;DHT22;52872;52.994;6.940;2023-05-10T15:28:39;20.70;99.90
66088;DHT22;52872;52.994;6.940;2023-05-10T15:31:06;20.60;99.90
66088;DHT22;52872;52.994;6.940;2023-05-10T15:33:33;20.50;99.90
66088;DHT22;52872;52.994;6.940;2023-05-10T15:36:00;20.60;99.90
66088;DHT22;52872;52.994;6.940;2023-05-10T15:38:29;20.40;99.90
66088;DHT22;52872;52.994;6.940;2023-05-10T15:40:57;20.50;99.90
